sensor_id;sensor_type;location;lat;lon;timestamp;temperature;humidity
41481;DHT22;27217;51.220;5.308;2023-11-21T00:00:20;7.90;99.90
41481;DHT22;27217;51.220;5.308;2023-11-21T00:02:46;7.80;99.90
41481;DHT22;27217;51.220;5.308;2023-11-21T00:05:13;7.80;99.90
41481;DHT22;27217;51.220;5.308;2023-11-21T00:07:40;7.60;99.90
41481;DHT22;27217;51.220;5.308;2023-11-21T00:10:07;7.60;99.90
41481;DHT22;27217;51.220;5.308;2023-11-21T00:12:37;7.70;99.90
41481;DHT22;27217;51.220;5.308;2023-11-21T00:15:03;7.70;99.90
41481;DHT22;27217;51.220;5.308;2023-11-21T00:17:33;7.70;99.90
41481;DHT22;27217;51.220;5.308;2023-11-21T00:19:59;7.60;99.90
41481;DHT22;27217;51.220;5.308;2023-11-21T00:22:25;7.50;99.90
41481;DHT22;27217;51.220;5.308;2023-11-21T00:24:51;7.70;99.90
41481;DHT22;27217;51.220;5.308;2023-11-21T00:27:16;7.70;99.90
41481;DHT22;27217;51.220;5.308;2023-11-21T00:29:42;7.80;99.90
41481;DHT22;27217;51.220;5.308;2023-11-21T00:32:08;7.80;99.90
41481;DHT22;27217;51.220;5.308;2023-11-21T00:34:34;7.90;99.90
41481;DHT22;27217;51.220;5.308;2023-11-21T00:37:00;7.80;99.90
41481;DHT22;27217;51.220;5.308;2023-11-21T00:39:25;8.00;99.90
41481;DHT22;27217;51.220;5.308;2023-11-21T00:41:52;8.20;99.90
41481;DHT22;27217;51.220;5.308;2023-11-21T00:44:18;8.10;99.90
41481;DHT22;27217;51.220;5.308;2023-11-21T00:46:44;7.90;99.90
41481;DHT22;27217;51.220;5.308;2023-11-21T00:49:09;7.70;99.90
41481;DHT22;27217;51.220;5.308;2023-11-21T00:51:35;7.80;99.90
41481;DHT22;27217;51.220;5.308;2023-11-21T00:54:02;7.50;99.90
41481;DHT22;27217;51.220;5.308;2023-11-21T00:56:28;7.30;99.90
41481;DHT22;27217;51.220;5.308;2023-11-21T00:58:53;7.20;99.90
41481;DHT22;27217;51.220;5.308;2023-11-21T01:01:20;7.30;99.90
41481;DHT22;27217;51.220;5.308;2023-11-21T01:03:46;7.30;99.90
41481;DHT22;27217;51.220;5.308;2023-11-21T01:06:12;7.10;99.90
41481;DHT22;27217;51.220;5.308;2023-11-21T01:08:37;7.10;99.90
41481;DHT22;27217;51.220;5.308;2023-11-21T01:11:04;7.10;99.90
41481;DHT22;27217;51.220;5.308;2023-11-21T01:13:30;7.40;99.90
41481;DHT22;27217;51.220;5.308;2023-11-21T01:15:56;7.70;99.90
41481;DHT22;27217;51.220;5.308;2023-11-21T01:18:22;8.00;99.90
41481;DHT22;27217;51.220;5.308;2023-11-21T01:20:47;7.60;99.90
41481;DHT22;27217;51.220;5.308;2023-11-21T01:23:13;7.30;99.90
41481;DHT22;27217;51.220;5.308;2023-11-21T01:25:39;7.40;99.90
41481;DHT22;27217;51.220;5.308;2023-11-21T01:28:05;7.80;99.90
41481;DHT22;27217;51.220;5.308;2023-11-21T01:30:31;7.50;99.90
41481;DHT22;27217;51.220;5.308;2023-11-21T01:32:58;7.60;99.90
41481;DHT22;27217;51.220;5.308;2023-11-21T01:35:24;7.40;99.90
41481;DHT22;27217;51.220;5.308;2023-11-21T01:37:50;7.70;99.90
41481;DHT22;27217;51.220;5.308;2023-11-21T01:40:16;7.90;99.90
41481;DHT22;27217;51.220;5.308;2023-11-21T01:42:42;7.50;99.90
41481;DHT22;27217;51.220;5.308;2023-11-21T01:45:13;7.70;99.90
41481;DHT22;27217;51.220;5.308;2023-11-21T01:47:39;7.70;99.90
41481;DHT22;27217;51.220;5.308;2023-11-21T01:50:07;7.50;99.90
41481;DHT22;27217;51.220;5.308;2023-11-21T01:52:35;7.40;99.90
41481;DHT22;27217;51.220;5.308;2023-11-21T01:55:01;7.50;99.90
41481;DHT22;27217;51.220;5.308;2023-11-21T01:57:28;7.70;99.90
41481;DHT22;27217;51.220;5.308;2023-11-21T01:59:54;7.90;99.90
41481;DHT22;27217;51.220;5.308;2023-11-21T02:02:20;7.80;99.90
41481;DHT22;27217;51.220;5.308;2023-11-21T02:04:46;7.90;99.90
41481;DHT22;27217;51.220;5.308;2023-11-21T02:07:12;8.00;99.90
41481;DHT22;27217;51.220;5.308;2023-11-21T02:09:38;7.70;99.90
41481;DHT22;27217;51.220;5.308;2023-11-21T02:12:04;7.60;99.90
41481;DHT22;27217;51.220;5.308;2023-11-21T02:14:31;7.80;99.90
41481;DHT22;27217;51.220;5.308;2023-11-21T02:16:57;7.70;99.90
41481;DHT22;27217;51.220;5.308;2023-11-21T02:19:23;7.70;99.90
41481;DHT22;27217;51.220;5.308;2023-11-21T02:21:51;8.10;99.90
41481;DHT22;27217;51.220;5.308;2023-11-21T02:24:22;8.00;99.90
41481;DHT22;27217;51.220;5.308;2023-11-21T02:26:48;7.90;99.90
41481;DHT22;27217;51.220;5.308;2023-11-21T02:29:17;8.20;99.90
41481;DHT22;27217;51.220;5.308;2023-11-21T02:31:45;8.20;99.90
41481;DHT22;27217;51.220;5.308;2023-11-21T02:34:17;8.10;99.90
41481;DHT22;27217;51.220;5.308;2023-11-21T02:36:44;8.10;99.90
41481;DHT22;27217;51.220;5.308;2023-11-21T02:39:10;8.50;99.90
41481;DHT22;27217;51.220;5.308;2023-11-21T02:41:39;8.60;99.90
41481;DHT22;27217;51.220;5.308;2023-11-21T02:44:06;8.50;99.90
41481;DHT22;27217;51.220;5.308;2023-11-21T02:46:33;7.90;99.90
41481;DHT22;27217;51.220;5.308;2023-11-21T02:49:02;7.80;99.90
41481;DHT22;27217;51.220;5.308;2023-11-21T02:51:29;7.80;99.90
41481;DHT22;27217;51.220;5.308;2023-11-21T02:53:55;8.10;99.90
41481;DHT22;27217;51.220;5.308;2023-11-21T02:56:25;7.80;99.90
41481;DHT22;27217;51.220;5.308;2023-11-21T02:58:52;7.70;99.90
41481;DHT22;27217;51.220;5.308;2023-11-21T03:01:18;7.80;99.90
41481;DHT22;27217;51.220;5.308;2023-11-21T03:03:43;7.60;99.90
41481;DHT22;27217;51.220;5.308;2023-11-21T03:06:09;7.60;99.90
41481;DHT22;27217;51.220;5.308;2023-11-21T03:08:35;8.50;99.90
41481;DHT22;27217;51.220;5.308;2023-11-21T03:11:01;7.80;99.90
41481;DHT22;27217;51.220;5.308;2023-11-21T03:13:29;7.80;99.90
41481;DHT22;27217;51.220;5.308;2023-11-21T03:15:54;7.90;99.90
41481;DHT22;27217;51.220;5.308;2023-11-21T03:18:24;7.60;99.90
41481;DHT22;27217;51.220;5.308;2023-11-21T03:20:51;7.40;99.90
41481;DHT22;27217;51.220;5.308;2023-11-21T03:23:17;7.40;99.90
41481;DHT22;27217;51.220;5.308;2023-11-21T03:25:43;7.60;99.90
41481;DHT22;27217;51.220;5.308;2023-11-21T03:28:09;7.80;99.90
41481;DHT22;27217;51.220;5.308;2023-11-21T03:30:35;7.60;99.90
41481;DHT22;27217;51.220;5.308;2023-11-21T03:33:01;7.90;99.90
41481;DHT22;27217;51.220;5.308;2023-11-21T03:35:26;8.00;99.90
41481;DHT22;27217;51.220;5.308;2023-11-21T03:37:53;8.00;99.90
41481;DHT22;27217;51.220;5.308;2023-11-21T03:40:19;8.00;99.90
41481;DHT22;27217;51.220;5.308;2023-11-21T03:42:46;8.10;99.90
41481;DHT22;27217;51.220;5.308;2023-11-21T03:45:13;7.90;99.90
41481;DHT22;27217;51.220;5.308;2023-11-21T03:47:42;7.90;99.90
41481;DHT22;27217;51.220;5.308;2023-11-21T03:50:09;7.90;99.90
41481;DHT22;27217;51.220;5.308;2023-11-21T03:52:35;7.90;99.90
41481;DHT22;27217;51.220;5.308;2023-11-21T03:55:01;7.80;99.90
41481;DHT22;27217;51.220;5.308;2023-11-21T03:57:28;7.60;99.90
41481;DHT22;27217;51.220;5.308;2023-11-21T03:59:54;7.80;99.90
41481;DHT22;27217;51.220;5.308;2023-11-21T04:02:19;7.90;99.90
41481;DHT22;27217;51.220;5.308;2023-11-21T04:04:45;8.10;99.90
41481;DHT22;27217;51.220;5.308;2023-11-21T04:07:11;8.00;99.90
41481;DHT22;27217;51.220;5.308;2023-11-21T04:09:39;7.80;99.90
41481;DHT22;27217;51.220;5.308;2023-11-21T04:12:05;7.80;99.90
41481;DHT22;27217;51.220;5.308;2023-11-21T04:14:31;7.60;99.90
41481;DHT22;27217;51.220;5.308;2023-11-21T04:16:57;7.40;99.90
41481;DHT22;27217;51.220;5.308;2023-11-21T04:19:22;7.40;99.90
41481;DHT22;27217;51.220;5.308;2023-11-21T04:21:48;7.70;99.90
41481;DHT22;27217;51.220;5.308;2023-11-21T04:24:14;7.60;99.90
41481;DHT22;27217;51.220;5.308;2023-11-21T04:26:40;7.90;99.90
41481;DHT22;27217;51.220;5.308;2023-11-21T04:29:06;8.00;99.90
41481;DHT22;27217;51.220;5.308;2023-11-21T04:31:31;7.70;99.90
41481;DHT22;27217;51.220;5.308;2023-11-21T04:33:57;7.70;99.90
41481;DHT22;27217;51.220;5.308;2023-11-21T04:36:23;7.60;99.90
41481;DHT22;27217;51.220;5.308;2023-11-21T04:38:49;7.40;99.90
41481;DHT22;27217;51.220;5.308;2023-11-21T04:41:15;8.10;99.90
41481;DHT22;27217;51.220;5.308;2023-11-21T04:43:40;7.80;99.90
41481;DHT22;27217;51.220;5.308;2023-11-21T04:46:07;7.80;99.90
41481;DHT22;27217;51.220;5.308;2023-11-21T04:48:33;7.80;99.90
41481;DHT22;27217;51.220;5.308;2023-11-21T04:51:01;7.70;99.90
41481;DHT22;27217;51.220;5.308;2023-11-21T04:53:27;7.60;99.90
41481;DHT22;27217;51.220;5.308;2023-11-21T04:55:53;7.70;99.90
41481;DHT22;27217;51.220;5.308;2023-11-21T04:58:18;7.60;99.90
41481;DHT22;27217;51.220;5.308;2023-11-21T05:00:46;7.50;99.90
41481;DHT22;27217;51.220;5.308;2023-11-21T05:03:11;7.50;99.90
41481;DHT22;27217;51.220;5.308;2023-11-21T05:05:37;7.60;99.90
41481;DHT22;27217;51.220;5.308;2023-11-21T05:08:03;7.50;99.90
41481;DHT22;27217;51.220;5.308;2023-11-21T05:10:30;7.90;99.90
41481;DHT22;27217;51.220;5.308;2023-11-21T05:12:56;7.90;99.90
41481;DHT22;27217;51.220;5.308;2023-11-21T05:15:22;8.00;99.90
41481;DHT22;27217;51.220;5.308;2023-11-21T05:17:48;8.10;99.90
41481;DHT22;27217;51.220;5.308;2023-11-21T05:20:16;8.10;99.90
41481;DHT22;27217;51.220;5.308;2023-11-21T05:22:49;8.20;99.90
41481;DHT22;27217;51.220;5.308;2023-11-21T05:25:15;8.20;99.90
41481;DHT22;27217;51.220;5.308;2023-11-21T05:27:41;8.20;99.90
41481;DHT22;27217;51.220;5.308;2023-11-21T05:30:07;8.20;99.90
41481;DHT22;27217;51.220;5.308;2023-11-21T05:32:37;8.20;99.90
41481;DHT22;27217;51.220;5.308;2023-11-21T05:35:04;8.10;99.90
41481;DHT22;27217;51.220;5.308;2023-11-21T05:37:35;8.10;99.90
41481;DHT22;27217;51.220;5.308;2023-11-21T05:40:01;8.20;99.90
41481;DHT22;27217;51.220;5.308;2023-11-21T05:42:32;8.20;99.90
41481;DHT22;27217;51.220;5.308;2023-11-21T05:44:57;8.30;99.90
41481;DHT22;27217;51.220;5.308;2023-11-21T05:47:25;8.40;99.90
41481;DHT22;27217;51.220;5.308;2023-11-21T05:49:53;8.30;99.90
41481;DHT22;27217;51.220;5.308;2023-11-21T05:52:19;8.30;99.90
41481;DHT22;27217;51.220;5.308;2023-11-21T05:54:46;8.30;99.90
41481;DHT22;27217;51.220;5.308;2023-11-21T05:57:11;8.40;99.90
41481;DHT22;27217;51.220;5.308;2023-11-21T05:59:37;8.50;99.90
41481;DHT22;27217;51.220;5.308;2023-11-21T06:02:04;8.40;99.90
41481;DHT22;27217;51.220;5.308;2023-11-21T06:04:30;8.30;99.90
41481;DHT22;27217;51.220;5.308;2023-11-21T06:06:56;8.40;99.90
41481;DHT22;27217;51.220;5.308;2023-11-21T06:09:22;8.40;99.90
41481;DHT22;27217;51.220;5.308;2023-11-21T06:11:48;8.60;99.90
41481;DHT22;27217;51.220;5.308;2023-11-21T06:14:14;8.60;99.90
41481;DHT22;27217;51.220;5.308;2023-11-21T06:16:43;8.50;99.90
41481;DHT22;27217;51.220;5.308;2023-11-21T06:19:10;8.60;99.90
41481;DHT22;27217;51.220;5.308;2023-11-21T06:21:36;8.60;99.90
41481;DHT22;27217;51.220;5.308;2023-11-21T06:24:02;8.50;99.90
41481;DHT22;27217;51.220;5.308;2023-11-21T06:26:28;8.70;99.90
41481;DHT22;27217;51.220;5.308;2023-11-21T06:28:54;8.70;99.90
41481;DHT22;27217;51.220;5.308;2023-11-21T06:31:19;8.70;99.90
41481;DHT22;27217;51.220;5.308;2023-11-21T06:33:47;9.60;99.90
41481;DHT22;27217;51.220;5.308;2023-11-21T06:36:12;9.10;99.90
41481;DHT22;27217;51.220;5.308;2023-11-21T06:38:38;9.30;99.90
41481;DHT22;27217;51.220;5.308;2023-11-21T06:41:04;9.10;99.90
41481;DHT22;27217;51.220;5.308;2023-11-21T06:43:30;9.10;99.90
41481;DHT22;27217;51.220;5.308;2023-11-21T06:45:59;8.70;99.90
41481;DHT22;27217;51.220;5.308;2023-11-21T06:48:25;8.80;99.90
41481;DHT22;27217;51.220;5.308;2023-11-21T06:50:50;8.50;99.90
41481;DHT22;27217;51.220;5.308;2023-11-21T06:53:17;8.50;99.90
41481;DHT22;27217;51.220;5.308;2023-11-21T06:55:43;8.40;99.90
41481;DHT22;27217;51.220;5.308;2023-11-21T06:58:09;8.20;99.90
41481;DHT22;27217;51.220;5.308;2023-11-21T07:00:34;8.20;99.90
41481;DHT22;27217;51.220;5.308;2023-11-21T07:03:00;8.30;99.90
41481;DHT22;27217;51.220;5.308;2023-11-21T07:05:26;8.50;99.90
41481;DHT22;27217;51.220;5.308;2023-11-21T07:07:51;8.70;99.90
41481;DHT22;27217;51.220;5.308;2023-11-21T07:10:19;8.60;99.90
41481;DHT22;27217;51.220;5.308;2023-11-21T07:12:45;8.70;99.90
41481;DHT22;27217;51.220;5.308;2023-11-21T07:15:11;8.90;99.90
41481;DHT22;27217;51.220;5.308;2023-11-21T07:17:38;8.90;99.90
41481;DHT22;27217;51.220;5.308;2023-11-21T07:20:06;8.80;99.90
41481;DHT22;27217;51.220;5.308;2023-11-21T07:22:41;8.60;99.90
41481;DHT22;27217;51.220;5.308;2023-11-21T07:25:08;8.80;99.90
41481;DHT22;27217;51.220;5.308;2023-11-21T07:27:35;8.80;99.90
41481;DHT22;27217;51.220;5.308;2023-11-21T07:30:02;9.10;99.90
41481;DHT22;27217;51.220;5.308;2023-11-21T07:32:30;9.40;99.90
41481;DHT22;27217;51.220;5.308;2023-11-21T07:34:56;9.40;99.90
41481;DHT22;27217;51.220;5.308;2023-11-21T07:37:23;9.00;99.90
41481;DHT22;27217;51.220;5.308;2023-11-21T07:39:49;9.20;99.90
41481;DHT22;27217;51.220;5.308;2023-11-21T07:42:15;9.10;99.90
41481;DHT22;27217;51.220;5.308;2023-11-21T07:44:42;9.30;99.90
41481;DHT22;27217;51.220;5.308;2023-11-21T07:47:08;9.40;99.90
41481;DHT22;27217;51.220;5.308;2023-11-21T07:49:37;9.30;99.90
41481;DHT22;27217;51.220;5.308;2023-11-21T07:52:03;9.30;99.90
41481;DHT22;27217;51.220;5.308;2023-11-21T07:54:29;9.80;99.90
41481;DHT22;27217;51.220;5.308;2023-11-21T07:56:55;9.90;99.90
41481;DHT22;27217;51.220;5.308;2023-11-21T07:59:21;9.50;99.90
41481;DHT22;27217;51.220;5.308;2023-11-21T08:01:47;9.20;99.90
41481;DHT22;27217;51.220;5.308;2023-11-21T08:04:12;9.40;99.90
41481;DHT22;27217;51.220;5.308;2023-11-21T08:06:38;9.80;99.90
41481;DHT22;27217;51.220;5.308;2023-11-21T08:09:04;9.50;99.90
41481;DHT22;27217;51.220;5.308;2023-11-21T08:11:30;9.50;99.90
41481;DHT22;27217;51.220;5.308;2023-11-21T08:13:58;9.40;99.90
41481;DHT22;27217;51.220;5.308;2023-11-21T08:16:25;9.50;99.90
41481;DHT22;27217;51.220;5.308;2023-11-21T08:18:51;9.90;99.90
41481;DHT22;27217;51.220;5.308;2023-11-21T08:21:16;10.00;99.90
41481;DHT22;27217;51.220;5.308;2023-11-21T08:23:42;10.10;99.90
41481;DHT22;27217;51.220;5.308;2023-11-21T08:26:08;10.10;99.90
41481;DHT22;27217;51.220;5.308;2023-11-21T08:28:34;10.40;99.90
41481;DHT22;27217;51.220;5.308;2023-11-21T08:31:01;10.30;99.90
41481;DHT22;27217;51.220;5.308;2023-11-21T08:33:26;10.20;99.90
41481;DHT22;27217;51.220;5.308;2023-11-21T08:35:53;10.20;99.90
41481;DHT22;27217;51.220;5.308;2023-11-21T08:38:18;10.20;99.90
41481;DHT22;27217;51.220;5.308;2023-11-21T08:40:44;10.00;99.90
41481;DHT22;27217;51.220;5.308;2023-11-21T08:43:10;10.20;99.90
41481;DHT22;27217;51.220;5.308;2023-11-21T08:45:37;10.20;99.90
41481;DHT22;27217;51.220;5.308;2023-11-21T08:48:03;10.10;99.90
41481;DHT22;27217;51.220;5.308;2023-11-21T08:50:29;10.00;99.90
41481;DHT22;27217;51.220;5.308;2023-11-21T08:52:55;10.00;99.90
41481;DHT22;27217;51.220;5.308;2023-11-21T08:55:21;10.20;99.90
41481;DHT22;27217;51.220;5.308;2023-11-21T08:57:47;10.00;99.90
41481;DHT22;27217;51.220;5.308;2023-11-21T09:00:13;10.00;99.90
41481;DHT22;27217;51.220;5.308;2023-11-21T09:02:42;10.20;99.90
41481;DHT22;27217;51.220;5.308;2023-11-21T09:05:09;10.00;99.90
41481;DHT22;27217;51.220;5.308;2023-11-21T09:07:39;9.70;99.90
41481;DHT22;27217;51.220;5.308;2023-11-21T09:10:08;9.80;99.90
41481;DHT22;27217;51.220;5.308;2023-11-21T09:12:37;10.10;99.90
41481;DHT22;27217;51.220;5.308;2023-11-21T09:15:07;10.40;99.90
41481;DHT22;27217;51.220;5.308;2023-11-21T09:17:35;10.10;99.90
41481;DHT22;27217;51.220;5.308;2023-11-21T09:20:02;10.10;99.90
41481;DHT22;27217;51.220;5.308;2023-11-21T09:22:32;10.30;99.90
41481;DHT22;27217;51.220;5.308;2023-11-21T09:24:57;10.40;99.90
41481;DHT22;27217;51.220;5.308;2023-11-21T09:27:24;10.30;99.90
41481;DHT22;27217;51.220;5.308;2023-11-21T09:29:51;10.50;99.90
41481;DHT22;27217;51.220;5.308;2023-11-21T09:32:18;10.60;99.90
41481;DHT22;27217;51.220;5.308;2023-11-21T09:34:44;10.90;99.90
41481;DHT22;27217;51.220;5.308;2023-11-21T09:37:10;11.20;99.90
41481;DHT22;27217;51.220;5.308;2023-11-21T09:39:36;11.30;99.90
41481;DHT22;27217;51.220;5.308;2023-11-21T09:42:10;10.90;99.90
41481;DHT22;27217;51.220;5.308;2023-11-21T09:47:07;11.20;99.90
41481;DHT22;27217;51.220;5.308;2023-11-21T09:49:37;11.20;99.90
41481;DHT22;27217;51.220;5.308;2023-11-21T09:52:04;11.00;99.90
41481;DHT22;27217;51.220;5.308;2023-11-21T09:54:32;11.00;99.90
41481;DHT22;27217;51.220;5.308;2023-11-21T09:56:59;10.90;99.90
41481;DHT22;27217;51.220;5.308;2023-11-21T09:59:30;10.50;99.90
41481;DHT22;27217;51.220;5.308;2023-11-21T10:01:57;10.20;99.90
41481;DHT22;27217;51.220;5.308;2023-11-21T10:04:24;10.10;99.90
41481;DHT22;27217;51.220;5.308;2023-11-21T10:06:50;10.40;99.90
41481;DHT22;27217;51.220;5.308;2023-11-21T10:09:16;10.50;99.90
41481;DHT22;27217;51.220;5.308;2023-11-21T10:11:43;10.90;99.90
41481;DHT22;27217;51.220;5.308;2023-11-21T10:14:12;11.30;99.90
41481;DHT22;27217;51.220;5.308;2023-11-21T10:16:40;11.30;99.90
41481;DHT22;27217;51.220;5.308;2023-11-21T10:19:10;10.60;99.90
41481;DHT22;27217;51.220;5.308;2023-11-21T10:21:37;10.50;99.90
41481;DHT22;27217;51.220;5.308;2023-11-21T10:24:03;11.00;99.90
41481;DHT22;27217;51.220;5.308;2023-11-21T10:26:30;10.70;99.90
41481;DHT22;27217;51.220;5.308;2023-11-21T10:28:58;10.50;99.90
41481;DHT22;27217;51.220;5.308;2023-11-21T10:31:27;10.30;99.90
41481;DHT22;27217;51.220;5.308;2023-11-21T10:33:53;10.40;99.90
41481;DHT22;27217;51.220;5.308;2023-11-21T10:36:28;10.70;99.90
41481;DHT22;27217;51.220;5.308;2023-11-21T10:38:54;10.70;99.90
41481;DHT22;27217;51.220;5.308;2023-11-21T10:41:20;10.80;99.90
41481;DHT22;27217;51.220;5.308;2023-11-21T10:43:47;10.60;99.90
41481;DHT22;27217;51.220;5.308;2023-11-21T10:46:14;10.80;99.90
41481;DHT22;27217;51.220;5.308;2023-11-21T10:48:43;10.70;99.90
41481;DHT22;27217;51.220;5.308;2023-11-21T10:51:12;10.80;99.90
41481;DHT22;27217;51.220;5.308;2023-11-21T10:53:41;10.80;99.90
41481;DHT22;27217;51.220;5.308;2023-11-21T10:56:13;11.10;99.90
41481;DHT22;27217;51.220;5.308;2023-11-21T10:58:43;11.10;99.90
41481;DHT22;27217;51.220;5.308;2023-11-21T11:01:11;11.30;99.90
41481;DHT22;27217;51.220;5.308;2023-11-21T11:03:40;11.30;99.90
41481;DHT22;27217;51.220;5.308;2023-11-21T11:06:07;11.60;99.90
41481;DHT22;27217;51.220;5.308;2023-11-21T11:08:37;11.50;99.90
41481;DHT22;27217;51.220;5.308;2023-11-21T11:11:07;11.70;99.90
41481;DHT22;27217;51.220;5.308;2023-11-21T11:13:35;11.70;99.90
41481;DHT22;27217;51.220;5.308;2023-11-21T11:16:02;11.70;99.90
41481;DHT22;27217;51.220;5.308;2023-11-21T11:18:29;11.80;99.90
41481;DHT22;27217;51.220;5.308;2023-11-21T11:21:11;11.90;99.90
41481;DHT22;27217;51.220;5.308;2023-11-21T11:26:53;11.80;99.90
41481;DHT22;27217;51.220;5.308;2023-11-21T11:32:36;11.70;99.90
41481;DHT22;27217;51.220;5.308;2023-11-21T11:34:56;11.40;99.90
41481;DHT22;27217;51.220;5.308;2023-11-21T11:37:25;11.50;99.90
41481;DHT22;27217;51.220;5.308;2023-11-21T11:39:51;11.70;99.90
41481;DHT22;27217;51.220;5.308;2023-11-21T11:42:17;11.90;99.90
41481;DHT22;27217;51.220;5.308;2023-11-21T11:44:46;11.90;99.90
41481;DHT22;27217;51.220;5.308;2023-11-21T11:47:36;11.90;99.90
41481;DHT22;27217;51.220;5.308;2023-11-21T11:50:12;12.10;99.90
41481;DHT22;27217;51.220;5.308;2023-11-21T11:52:48;12.20;99.90
41481;DHT22;27217;51.220;5.308;2023-11-21T11:55:17;12.10;99.90
41481;DHT22;27217;51.220;5.308;2023-11-21T11:57:46;12.00;99.90
41481;DHT22;27217;51.220;5.308;2023-11-21T12:02:52;12.40;99.90
41481;DHT22;27217;51.220;5.308;2023-11-21T12:05:22;12.40;99.90
41481;DHT22;27217;51.220;5.308;2023-11-21T12:07:57;12.10;99.90
41481;DHT22;27217;51.220;5.308;2023-11-21T12:10:24;11.90;99.90
41481;DHT22;27217;51.220;5.308;2023-11-21T12:13:16;11.90;99.90
41481;DHT22;27217;51.220;5.308;2023-11-21T12:15:42;12.10;99.90
41481;DHT22;27217;51.220;5.308;2023-11-21T12:18:07;12.40;99.90
41481;DHT22;27217;51.220;5.308;2023-11-21T12:20:33;12.70;99.90
41481;DHT22;27217;51.220;5.308;2023-11-21T12:23:05;12.40;99.90
41481;DHT22;27217;51.220;5.308;2023-11-21T12:25:31;12.30;99.90
41481;DHT22;27217;51.220;5.308;2023-11-21T12:27:59;12.20;99.90
41481;DHT22;27217;51.220;5.308;2023-11-21T12:30:29;12.20;99.90
41481;DHT22;27217;51.220;5.308;2023-11-21T12:32:57;12.20;99.90
41481;DHT22;27217;51.220;5.308;2023-11-21T12:35:30;12.10;99.90
41481;DHT22;27217;51.220;5.308;2023-11-21T12:37:59;12.00;99.90
41481;DHT22;27217;51.220;5.308;2023-11-21T12:40:28;12.20;99.90
41481;DHT22;27217;51.220;5.308;2023-11-21T12:42:58;12.30;99.90
41481;DHT22;27217;51.220;5.308;2023-11-21T12:45:25;12.10;99.90
41481;DHT22;27217;51.220;5.308;2023-11-21T12:48:12;12.30;99.90
41481;DHT22;27217;51.220;5.308;2023-11-21T12:50:38;12.20;99.90
41481;DHT22;27217;51.220;5.308;2023-11-21T12:53:08;12.50;99.90
41481;DHT22;27217;51.220;5.308;2023-11-21T12:55:36;12.50;99.90
41481;DHT22;27217;51.220;5.308;2023-11-21T12:58:07;12.40;99.90
41481;DHT22;27217;51.220;5.308;2023-11-21T13:00:42;12.30;99.90
41481;DHT22;27217;51.220;5.308;2023-11-21T13:03:08;12.20;99.90
41481;DHT22;27217;51.220;5.308;2023-11-21T13:05:37;12.20;99.90
41481;DHT22;27217;51.220;5.308;2023-11-21T13:08:08;12.20;99.90
41481;DHT22;27217;51.220;5.308;2023-11-21T13:10:36;12.30;99.90
41481;DHT22;27217;51.220;5.308;2023-11-21T13:13:04;12.20;99.90
41481;DHT22;27217;51.220;5.308;2023-11-21T13:15:39;12.00;99.90
41481;DHT22;27217;51.220;5.308;2023-11-21T13:18:06;11.90;99.90
41481;DHT22;27217;51.220;5.308;2023-11-21T13:20:32;11.90;99.90
41481;DHT22;27217;51.220;5.308;2023-11-21T13:22:59;11.80;99.90
41481;DHT22;27217;51.220;5.308;2023-11-21T13:25:27;11.70;99.90
41481;DHT22;27217;51.220;5.308;2023-11-21T13:27:57;11.60;99.90
41481;DHT22;27217;51.220;5.308;2023-11-21T13:30:24;11.50;99.90
41481;DHT22;27217;51.220;5.308;2023-11-21T13:33:01;11.40;99.90
41481;DHT22;27217;51.220;5.308;2023-11-21T13:35:28;11.40;99.90
41481;DHT22;27217;51.220;5.308;2023-11-21T13:38:05;11.50;99.90
41481;DHT22;27217;51.220;5.308;2023-11-21T13:40:32;11.70;99.90
41481;DHT22;27217;51.220;5.308;2023-11-21T13:43:01;11.80;99.90
41481;DHT22;27217;51.220;5.308;2023-11-21T13:45:30;11.90;99.90
41481;DHT22;27217;51.220;5.308;2023-11-21T13:47:56;11.80;99.90
41481;DHT22;27217;51.220;5.308;2023-11-21T13:50:25;11.70;99.90
41481;DHT22;27217;51.220;5.308;2023-11-21T13:52:58;11.70;99.90
41481;DHT22;27217;51.220;5.308;2023-11-21T13:55:27;11.80;99.90
41481;DHT22;27217;51.220;5.308;2023-11-21T13:57:52;11.80;99.90
41481;DHT22;27217;51.220;5.308;2023-11-21T14:00:18;11.90;99.90
41481;DHT22;27217;51.220;5.308;2023-11-21T14:03:08;12.00;99.90
41481;DHT22;27217;51.220;5.308;2023-11-21T14:05:41;12.10;99.90
41481;DHT22;27217;51.220;5.308;2023-11-21T14:08:08;12.20;99.90
41481;DHT22;27217;51.220;5.308;2023-11-21T14:10:37;12.10;99.90
41481;DHT22;27217;51.220;5.308;2023-11-21T14:13:09;11.90;99.90
41481;DHT22;27217;51.220;5.308;2023-11-21T14:15:39;11.80;99.90
41481;DHT22;27217;51.220;5.308;2023-11-21T14:18:09;11.60;99.90
41481;DHT22;27217;51.220;5.308;2023-11-21T14:20:40;11.70;99.90
41481;DHT22;27217;51.220;5.308;2023-11-21T14:23:07;11.70;99.90
41481;DHT22;27217;51.220;5.308;2023-11-21T14:25:34;11.70;99.90
41481;DHT22;27217;51.220;5.308;2023-11-21T14:28:00;11.60;99.90
41481;DHT22;27217;51.220;5.308;2023-11-21T14:30:26;11.60;99.90
41481;DHT22;27217;51.220;5.308;2023-11-21T14:32:54;11.50;99.90
41481;DHT22;27217;51.220;5.308;2023-11-21T14:35:20;11.50;99.90
41481;DHT22;27217;51.220;5.308;2023-11-21T14:37:46;11.40;99.90
41481;DHT22;27217;51.220;5.308;2023-11-21T14:40:12;11.40;99.90
41481;DHT22;27217;51.220;5.308;2023-11-21T14:42:43;11.50;99.90
41481;DHT22;27217;51.220;5.308;2023-11-21T14:45:13;11.50;99.90
41481;DHT22;27217;51.220;5.308;2023-11-21T14:47:41;11.60;99.90
41481;DHT22;27217;51.220;5.308;2023-11-21T14:50:12;11.70;99.90
41481;DHT22;27217;51.220;5.308;2023-11-21T14:52:56;11.40;99.90
41481;DHT22;27217;51.220;5.308;2023-11-21T14:55:25;11.40;99.90
41481;DHT22;27217;51.220;5.308;2023-11-21T14:58:12;11.20;99.90
41481;DHT22;27217;51.220;5.308;2023-11-21T15:00:41;11.30;99.90
41481;DHT22;27217;51.220;5.308;2023-11-21T15:03:10;11.20;99.90
41481;DHT22;27217;51.220;5.308;2023-11-21T15:05:50;11.00;99.90
41481;DHT22;27217;51.220;5.308;2023-11-21T15:08:15;11.10;99.90
41481;DHT22;27217;51.220;5.308;2023-11-21T15:10:51;11.10;99.90
41481;DHT22;27217;51.220;5.308;2023-11-21T15:13:21;11.00;99.90
41481;DHT22;27217;51.220;5.308;2023-11-21T15:15:52;10.90;99.90
41481;DHT22;27217;51.220;5.308;2023-11-21T15:18:20;10.80;99.90
41481;DHT22;27217;51.220;5.308;2023-11-21T15:20:46;10.80;99.90
41481;DHT22;27217;51.220;5.308;2023-11-21T15:23:12;10.80;99.90
41481;DHT22;27217;51.220;5.308;2023-11-21T15:25:43;10.80;99.90
41481;DHT22;27217;51.220;5.308;2023-11-21T15:28:08;10.80;99.90
41481;DHT22;27217;51.220;5.308;2023-11-21T15:30:34;10.80;99.90
41481;DHT22;27217;51.220;5.308;2023-11-21T15:33:02;10.90;99.90
41481;DHT22;27217;51.220;5.308;2023-11-21T15:35:29;10.90;99.90
41481;DHT22;27217;51.220;5.308;2023-11-21T15:37:55;10.90;99.90
41481;DHT22;27217;51.220;5.308;2023-11-21T15:40:24;10.80;99.90
41481;DHT22;27217;51.220;5.308;2023-11-21T15:42:50;10.90;99.90
41481;DHT22;27217;51.220;5.308;2023-11-21T15:45:16;10.90;99.90
41481;DHT22;27217;51.220;5.308;2023-11-21T15:47:44;10.90;99.90
41481;DHT22;27217;51.220;5.308;2023-11-21T15:50:11;11.10;99.90
41481;DHT22;27217;51.220;5.308;2023-11-21T15:52:37;11.20;99.90